Date,TemperatureHighF,TemperatureAvgF,TemperatureLowF,DewpointHighF,DewpointAvgF,DewpointLowF,HumidityHigh,HumidityAvg,HumidityLow,PressureMaxIn,PressureMinIn,WindSpeedMaxMPH,WindSpeedAvgMPH,GustSpeedMaxMPH,PrecipitationSumIn
2013-1-1,31,24,10,29,14,4,90,69,55,0.00,40.00,12,5,16,0.00
2013-1-2,22,16,8,14,10,5,86,78,66,0.00,40.00,9,6,12,0.00
2013-1-3,29,21,10,24,13,1,85,71,59,0.00,40.00,16,10,23,0.00
2013-1-4,28,23,18,21,16,12,81,75,69,0.00,40.00,24,15,32,0.00
2013-1-5,34,26,18,29,20,14,85,78,65,0.00,40.00,14,8,19,0.00
2013-1-6,36,33,29,32,28,25,89,80,72,0.00,40.00,15,10,22,0.00
2013-1-7,35,29,25,26,24,21,91,80,67,0.00,40.00,14,7,21,0.00
2013-1-8,39,31,22,28,24,18,86,75,63,0.00,40.00,11,6,16,0.00
2013-1-9,44,39,31,35,32,28,88,76,68,0.00,40.00,18,11,25,0.00
2013-1-10,41,34,27,32,28,23,90,79,66,0.00,40.00,8,4,12,0.00
2013-1-11,59,49,37,53,44,31,95,84,74,0.00,40.00,20,10,35,0.00
2013-1-12,59,54,49,53,49,44,97,84,77,0.00,40.00,16,8,22,0.00
2013-1-13,55,43,35,54,42,30,98,93,85,0.00,40.00,18,7,23,0.00
2013-1-14,34,27,24,31,19,15,87,72,62,0.00,40.00,14,6,25,0.00
2013-1-15,30,26,20,21,17,14,84,70,53,0.00,40.00,7,4,12,0.00
2013-1-16,35,30,24,25,22,20,89,74,59,0.00,40.00,17,8,24,0.00
2013-1-17,40,33,22,29,22,7,87,67,47,0.00,40.00,17,8,28,0.00
2013-1-18,36,28,21,22,17,7,80,62,52,0.00,40.00,21,10,35,0.00
2013-1-19,49,42,36,34,27,22,68,56,47,0.00,40.00,23,16,37,0.00
2013-1-20,43,26,20,34,12,5,71,55,46,0.00,40.00,25,14,42,0.00
2013-1-21,20,17,9,10,5,-1,80,58,43,0.00,40.00,19,11,29,0.00
2013-1-22,13,7,2,4,-2,-7,83,67,51,0.00,40.00,17,8,23,0.00
2013-1-23,18,12,2,13,2,-6,87,66,45,0.00,40.00,14,6,18,0.00
2013-1-24,23,15,8,13,7,3,88,69,46,0.00,40.00,13,5,18,0.00
2013-1-25,21,19,16,19,12,7,90,74,63,0.00,40.00,7,5,12,0.00
2013-1-26,26,23,18,20,16,11,90,73,54,0.00,40.00,12,5,19,0.00
2013-1-27,32,24,11,25,16,7,85,72,61,0.00,40.00,12,5,19,0.00
2013-1-28,48,42,32,47,40,25,98,93,74,0.00,40.00,17,10,27,0.00
2013-1-29,59,51,38,55,49,38,98,91,81,0.00,40.00,20,9,28,0.00
2013-1-30,62,53,35,57,48,29,96,85,77,0.00,40.00,28,15,40,0.00
2013-1-31,34,22,17,29,12,4,79,64,51,0.00,40.00,22,16,34,0.00
2013-2-1,19,15,11,8,5,2,74,64,53,0.00,40.00,20,14,27,0.00
2013-2-2,24,19,14,20,14,5,89,79,66,0.00,40.00,13,8,21,0.00
2013-2-3,21,16,8,15,10,5,87,77,67,0.00,40.00,15,6,22,0.00
2013-2-4,26,21,17,22,17,11,91,84,76,0.00,40.00,11,5,16,0.00
2013-2-5,28,23,18,26,20,16,94,86,71,0.00,40.00,10,4,14,0.00
2013-2-6,31,26,16,26,14,9,89,63,43,0.00,40.00,12,4,20,0.00
2013-2-7,40,30,22,30,23,14,90,74,58,0.00,40.00,10,5,16,0.00
2013-2-8,33,29,22,32,24,15,96,82,66,0.00,40.00,19,10,30,0.00
2013-2-9,32,24,13,21,17,10,87,75,58,0.00,40.00,7,3,11,0.00
2013-2-10,46,35,22,39,25,17,87,69,53,0.00,40.00,20,7,28,0.00
2013-2-11,47,39,33,43,31,22,91,73,61,0.00,40.00,32,19,45,0.00
2013-2-12,35,32,28,26,23,21,80,69,62,0.00,40.00,16,8,24,0.00
2013-2-13,35,30,26,25,22,20,82,75,65,0.00,40.00,8,4,11,0.00
2013-2-14,42,36,29,35,30,25,87,78,62,0.00,40.00,21,11,30,0.00
2013-2-15,35,30,25,26,20,13,80,65,47,0.00,40.00,12,7,19,0.00
2013-2-16,27,22,18,20,14,8,86,70,57,0.00,40.00,14,6,22,0.00
2013-2-17,25,19,14,11,8,3,84,62,39,0.00,40.00,12,6,18,0.00
2013-2-18,49,34,17,33,20,8,70,57,44,0.00,40.00,19,11,29,0.00
2013-2-19,47,29,18,39,21,8,88,73,56,0.00,40.00,29,19,40,0.00
2013-2-20,23,20,18,17,12,8,86,69,53,0.00,40.00,17,10,28,0.00
2013-2-21,25,23,21,17,14,11,74,69,63,0.00,40.00,12,8,17,0.00
2013-2-22,37,29,22,35,26,15,96,87,72,0.00,40.00,14,8,21,0.00
2013-2-23,35,31,28,31,23,19,89,72,61,0.00,40.00,16,9,22,0.00
2013-2-24,37,30,23,26,22,17,81,71,56,0.00,40.00,14,7,19,0.00
2013-2-25,42,32,23,28,24,20,90,74,50,0.00,40.00,10,4,15,0.00
2013-2-26,34,32,30,33,27,24,95,84,75,0.00,40.00,19,12,29,0.00
2013-2-27,37,34,32,35,32,31,95,93,89,0.00,40.00,17,10,23,0.00
2013-2-28,39,34,32,33,30,26,96,84,69,0.00,40.00,16,9,22,0.00
2013-3-1,32,29,26,27,22,19,82,75,68,0.00,40.00,12,8,19,0.00
2013-3-2,30,27,25,22,19,16,87,73,63,0.00,40.00,12,8,16,0.00
2013-3-3,30,25,22,18,15,12,79,64,48,0.00,40.00,11,6,16,0.00
2013-3-4,37,27,17,23,17,14,85,67,44,0.00,40.00,6,3,9,0.00
2013-3-5,32,28,25,26,23,22,88,81,69,0.00,40.00,21,10,30,0.00
2013-3-6,39,34,29,29,27,24,82,75,66,0.00,40.00,20,9,29,0.00
2013-3-7,39,35,31,30,26,19,85,71,50,0.00,40.00,11,5,16,0.00
2013-3-8,45,34,25,27,22,18,80,63,47,0.00,40.00,7,3,11,0.00
2013-3-9,51,37,28,35,28,24,86,70,46,0.00,40.00,10,5,16,0.00
2013-3-10,61,55,49,40,37,33,56,50,42,0.00,40.00,19,9,26,0.00
2013-3-11,56,50,38,49,43,32,90,76,52,0.00,40.00,25,15,38,0.00
2013-3-12,37,34,31,32,28,24,91,79,67,0.00,40.00,20,12,30,0.00
2013-3-13,33,30,28,28,20,15,89,67,53,0.00,40.00,18,11,30,0.00
2013-3-14,42,31,22,22,18,15,77,60,41,0.00,40.00,12,6,19,0.00
2013-3-15,45,36,30,38,30,22,93,78,62,0.00,40.00,14,7,19,0.00
2013-3-16,36,32,30,34,30,25,96,91,78,0.00,40.00,15,8,21,0.00
2013-3-17,31,29,26,26,20,17,79,68,59,0.00,40.00,17,8,24,0.00
2013-3-18,40,33,28,39,30,20,96,86,68,0.00,40.00,19,10,29,0.00
2013-3-19,35,29,24,32,18,14,88,64,48,0.00,40.00,24,16,36,0.00
2013-3-20,30,27,20,18,14,7,75,58,44,0.00,40.00,17,9,24,0.00
2013-3-21,32,24,16,21,15,9,81,69,52,0.00,40.00,14,9,22,0.00
2013-3-22,42,32,27,22,18,15,68,56,40,0.00,40.00,12,7,22,0.00
2013-3-23,41,32,22,25,22,19,85,68,47,0.00,40.00,7,3,15,0.00
2013-3-24,35,31,27,26,23,21,86,73,60,0.00,40.00,22,12,32,0.00
2013-3-25,36,33,30,33,30,24,96,88,67,0.00,40.00,21,11,31,0.00
2013-3-26,44,37,34,32,28,25,79,71,47,0.00,40.00,15,7,21,0.00
2013-3-27,45,39,32,30,26,22,84,61,40,0.00,40.00,16,9,23,0.00
2013-3-28,51,40,28,31,24,21,77,54,35,0.00,40.00,12,6,25,0.00
2013-3-29,52,40,28,30,22,18,79,52,26,0.00,40.00,11,4,16,0.00
2013-3-30,56,43,28,30,24,17,73,50,26,0.00,40.00,14,5,19,0.00
2013-3-31,59,48,41,43,33,-100,82,58,33,0.00,40.00,17,8,33,0.00
2013-4-1,47,36,29,35,17,9,77,48,27,0.00,40.00,20,11,30,0.00
2013-4-2,43,32,20,19,12,8,72,46,26,0.00,40.00,16,8,25,0.00
2013-4-3,44,33,22,19,12,8,67,43,23,0.00,40.00,14,6,21,0.00
2013-4-4,56,40,26,16,12,2,58,35,13,0.00,40.00,11,5,16,0.00
2013-4-5,52,43,35,32,22,14,77,47,22,0.00,40.00,12,6,21,0.00
2013-4-6,57,45,32,24,18,13,67,38,22,0.00,40.00,18,9,27,0.00
2013-4-7,63,58,47,45,37,20,62,46,24,0.00,40.00,22,13,35,0.00
2013-4-8,72,55,38,54,44,33,81,65,48,0.00,40.00,25,10,38,0.00
2013-4-9,67,52,45,48,43,40,86,70,49,0.00,40.00,12,6,17,0.00
2013-4-10,48,45,43,46,43,40,97,93,83,0.00,40.00,17,8,28,0.00
2013-4-11,43,39,38,41,38,36,95,92,89,0.00,40.00,22,14,30,0.00
2013-4-12,42,40,38,39,36,31,97,85,69,0.00,40.00,21,11,30,0.00
2013-4-13,42,40,37,37,33,29,89,77,63,0.00,40.00,18,11,29,0.00
2013-4-14,53,42,36,40,34,29,86,74,60,0.00,40.00,14,6,19,0.00
2013-4-15,70,57,39,52,46,37,90,68,50,0.00,40.00,19,8,27,0.00
2013-4-16,61,56,51,54,49,44,95,78,65,0.00,40.00,14,6,19,0.00
2013-4-17,52,48,44,44,36,31,85,63,48,0.00,40.00,19,11,26,0.00
2013-4-18,82,63,45,63,54,38,91,74,47,0.00,40.00,29,13,44,0.00
2013-4-19,67,47,37,58,40,29,92,75,59,0.00,40.00,33,17,45,0.00
2013-4-20,43,38,31,31,24,17,91,59,36,0.00,40.00,19,11,27,0.00
2013-4-21,48,38,30,29,24,18,73,57,42,0.00,40.00,13,6,20,0.00
2013-4-22,60,47,34,36,31,24,87,57,26,0.00,40.00,11,5,20,0.00
2013-4-23,72,57,44,55,41,30,95,57,32,0.00,40.00,22,8,30,0.00
2013-4-24,59,45,35,55,40,29,94,84,61,0.00,40.00,17,10,24,0.00
2013-4-25,52,42,34,40,32,27,87,66,42,0.00,40.00,21,9,29,0.00
2013-4-26,60,47,32,39,31,28,86,56,33,0.00,40.00,12,4,17,0.00
2013-4-27,72,55,40,40,35,29,82,52,22,0.00,40.00,12,5,22,0.00
2013-4-28,59,54,49,58,49,-100,96,84,58,0.00,40.00,10,5,14,0.00
2013-4-29,70,61,53,56,54,51,97,80,55,0.00,40.00,11,5,16,0.00
2013-4-30,76,64,53,55,53,50,91,69,44,0.00,40.00,17,8,21,0.00
2013-5-1,84,69,59,58,54,51,79,61,34,0.00,40.00,13,6,20,0.00
2013-5-2,80,66,53,53,50,45,88,59,31,0.00,40.00,15,6,22,0.00
2013-5-3,81,68,56,53,46,24,71,49,13,0.00,40.00,16,7,23,0.00
2013-5-4,71,62,55,46,42,33,65,49,26,0.00,40.00,17,9,24,0.00
2013-5-5,70,60,53,46,43,35,72,55,28,0.00,40.00,17,8,24,0.00
2013-5-6,68,60,52,49,44,38,79,55,42,0.00,40.00,11,6,17,0.00
2013-5-7,71,62,52,54,50,42,83,64,48,0.00,40.00,16,6,21,0.00
2013-5-8,77,66,57,53,50,46,79,58,37,0.00,40.00,9,4,12,0.00
2013-5-9,82,69,54,54,50,42,86,55,25,0.00,40.00,8,3,14,0.00
2013-5-10,72,63,49,61,54,-100,96,78,55,0.00,40.00,18,10,26,0.00
2013-5-11,59,49,43,47,42,32,87,75,59,0.00,40.00,19,8,28,0.00
2013-5-12,51,43,36,33,29,24,86,58,36,0.00,40.00,18,10,27,0.00
2013-5-13,56,45,33,28,23,17,76,46,22,0.00,40.00,15,6,21,0.00
2013-5-14,80,61,44,56,41,28,61,48,34,0.00,40.00,21,9,28,0.00
2013-5-15,88,76,69,58,52,40,68,47,19,0.00,40.00,20,10,30,0.00
2013-5-16,84,67,56,53,24,-100,64,39,20,0.00,40.00,11,4,16,0.00
2013-5-17,69,60,53,50,41,-100,75,56,41,0.00,40.00,16,9,24,0.00
2013-5-18,74,63,53,53,48,43,82,59,39,0.00,40.00,16,7,22,0.00
2013-5-19,84,70,56,65,58,47,88,66,47,0.00,40.00,12,5,18,0.00
2013-5-20,92,79,67,69,64,61,86,62,38,0.00,40.00,17,8,28,0.00
2013-5-21,88,80,73,65,60,55,77,54,34,0.00,40.00,21,10,32,0.00
2013-5-22,83,73,64,65,61,56,87,66,41,0.00,40.00,23,9,32,0.00
2013-5-23,69,58,45,60,53,38,94,83,63,0.00,40.00,20,9,29,0.00
2013-5-24,58,49,44,40,36,32,86,61,41,0.00,40.00,15,8,21,0.00
2013-5-25,65,53,41,41,37,33,89,58,31,0.00,40.00,7,3,12,0.00
2013-5-26,69,58,42,41,35,26,85,46,22,0.00,40.00,9,3,24,0.00
2013-5-27,58,55,52,53,45,35,94,70,43,0.00,40.00,12,6,17,0.00
2013-5-28,81,70,55,68,62,53,96,78,61,0.00,40.00,19,9,31,0.00
2013-5-29,86,78,71,66,62,60,68,60,46,0.00,40.00,19,10,28,0.00
2013-5-30,91,79,71,67,64,59,75,61,39,0.00,40.00,16,8,29,0.00
2013-5-31,84,75,71,69,65,62,87,71,52,0.00,40.00,21,10,35,0.00
2013-6-1,78,70,63,68,64,61,97,82,59,0.00,40.00,19,8,29,0.00
2013-6-2,72,67,57,66,58,-100,92,76,56,0.00,40.00,17,10,25,0.00
2013-6-3,68,59,51,48,42,35,73,54,30,0.00,40.00,11,5,15,0.00
2013-6-4,70,61,50,51,44,41,80,56,39,0.00,40.00,11,4,16,0.00
2013-6-5,71,63,54,50,46,42,80,55,34,0.00,40.00,14,7,19,0.00
2013-6-6,66,62,58,54,50,45,80,66,61,0.00,40.00,12,8,18,0.00
2013-6-7,62,59,56,53,52,51,85,77,66,0.00,40.00,9,4,12,0.00
2013-6-8,74,65,58,55,53,50,84,66,45,0.00,40.00,9,3,14,0.00
2013-6-9,83,70,60,63,57,50,85,65,38,0.00,40.00,12,6,19,0.00
2013-6-10,76,70,66,67,65,61,93,84,64,0.00,40.00,12,4,25,0.00
2013-6-11,83,74,66,65,63,61,92,71,47,0.00,40.00,12,6,16,0.00
2013-6-12,84,74,67,70,64,61,87,72,54,0.00,40.00,10,4,16,0.00
2013-6-13,78,70,65,67,59,52,97,69,41,0.00,40.00,22,8,38,0.00
2013-6-14,76,69,62,59,55,51,81,62,42,0.00,40.00,11,6,17,0.00
2013-6-15,80,69,59,63,57,53,83,68,40,0.00,40.00,11,5,18,0.00
2013-6-16,84,74,65,66,64,60,96,72,50,0.00,40.00,14,8,22,0.00
2013-6-17,86,76,64,69,63,58,93,67,38,0.00,40.00,10,5,19,0.00
2013-6-18,75,68,63,64,58,47,90,73,56,0.00,40.00,14,8,19,0.00
2013-6-19,75,65,54,56,48,45,77,56,36,0.00,40.00,9,5,16,0.00
2013-6-20,83,67,55,53,49,46,76,55,29,0.00,40.00,7,3,11,0.00
2013-6-22,92,82,71,70,67,62,87,61,41,0.00,40.00,17,9,25,0.00
2013-6-23,91,80,71,69,67,62,89,67,38,0.00,40.00,19,7,27,0.00
2013-6-24,87,76,68,68,66,64,88,71,50,0.00,40.00,12,6,19,0.00
2013-6-25,90,80,69,72,68,63,88,67,50,0.00,40.00,14,8,24,0.00
2013-6-26,87,74,67,70,67,65,93,80,55,0.00,40.00,10,6,17,0.00
2013-6-27,84,74,68,71,69,65,95,85,60,0.00,40.00,14,4,21,0.00
2013-6-28,81,69,64,66,64,61,96,86,53,0.00,40.00,11,4,18,0.00
2013-6-29,76,68,61,65,62,58,96,81,63,0.00,40.00,9,4,15,0.00
2013-6-30,74,69,65,63,60,56,86,71,60,0.00,40.00,14,7,22,0.00
2013-7-1,68,66,63,62,59,53,94,79,61,0.00,40.00,17,9,28,0.00
2013-7-2,71,67,65,65,63,59,95,87,78,0.00,40.00,12,7,19,0.00
2013-7-3,83,72,65,68,65,63,96,80,53,0.00,40.00,10,4,16,0.00
2013-7-4,81,74,69,70,68,65,94,82,59,0.00,40.00,11,5,20,0.00
2013-7-5,82,73,68,70,68,66,97,84,60,0.00,40.00,6,3,10,0.00
2013-7-6,82,74,70,73,69,67,97,86,64,0.00,40.00,12,4,17,0.00
2013-7-7,80,72,67,70,66,62,96,82,64,0.00,40.00,12,7,19,0.00
2013-7-8,83,72,67,74,66,-100,94,85,70,0.00,40.00,14,5,26,0.00
2013-7-9,88,76,71,75,72,69,97,87,61,0.00,40.00,12,6,19,0.00
2013-7-10,86,75,66,77,66,-100,96,79,62,0.00,40.00,14,7,22,0.00
2013-7-11,77,72,66,65,58,53,84,62,44,0.00,40.00,12,5,17,0.00
2013-7-12,79,70,61,62,60,57,87,71,49,0.00,40.00,11,5,16,0.00
2013-7-13,81,75,66,68,65,60,92,71,55,0.00,40.00,11,6,16,0.00
2013-7-14,87,78,67,72,69,65,94,74,52,0.00,40.00,10,4,14,0.00
2013-7-15,92,80,73,74,71,70,90,75,53,0.00,40.00,7,3,11,0.00
2013-7-16,91,84,76,75,73,70,88,69,51,0.00,40.00,7,3,11,0.00
2013-7-17,93,83,74,75,73,71,89,74,54,0.00,40.00,10,4,14,0.00
2013-7-18,93,85,74,75,73,72,92,70,51,0.00,40.00,11,5,16,0.00
2013-7-19,92,84,76,74,73,67,86,69,51,0.00,40.00,18,10,28,0.00
2013-7-20,86,77,69,73,69,-100,97,78,51,0.00,40.00,18,7,31,0.00
2013-7-21,83,76,68,67,65,61,89,70,52,0.00,40.00,9,5,12,0.00
2013-7-22,78,72,69,70,66,63,92,82,72,0.00,40.00,6,3,11,0.00
2013-7-23,85,74,66,70,65,56,95,75,48,0.00,40.00,17,7,23,0.00
2013-7-24,71,65,58,56,51,49,74,61,47,0.00,40.00,13,7,22,0.00
2013-7-25,76,66,54,57,54,51,89,67,47,0.00,40.00,7,3,12,0.00
2013-7-26,78,68,57,62,56,54,88,67,44,0.00,40.00,9,3,13,0.00
2013-7-27,76,67,60,66,61,53,94,82,57,0.00,40.00,14,8,29,0.00
2013-7-28,67,60,51,56,51,48,92,73,55,0.00,40.00,14,7,24,0.00
2013-7-29,74,60,53,57,52,49,88,75,51,0.00,40.00,10,5,19,0.00
2013-7-30,78,66,55,62,56,52,92,73,46,0.00,40.00,7,2,12,0.00
2013-7-31,80,70,67,67,63,60,96,79,55,0.00,40.00,12,6,16,0.00
2013-8-1,79,72,65,67,62,53,96,74,46,0.00,40.00,11,5,17,0.00
2013-8-2,73,65,55,68,59,52,95,80,61,0.00,40.00,12,6,19,0.00
2013-8-3,80,72,63,66,58,50,97,65,37,0.00,40.00,11,4,16,0.00
2013-8-4,74,67,58,56,54,51,83,64,47,0.00,40.00,12,5,17,0.00
2013-8-5,74,66,57,59,55,51,84,69,44,0.00,40.00,7,3,11,0.00
2013-8-6,82,71,64,65,62,59,89,72,53,0.00,40.00,12,5,16,0.00
2013-8-7,82,74,66,72,68,63,96,82,67,0.00,40.00,14,4,19,0.00
2013-8-8,74,72,69,71,67,64,95,84,73,0.00,40.00,12,5,17,0.00
2013-8-9,80,72,65,64,59,52,84,64,41,0.00,40.00,8,4,12,0.00
2013-8-10,76,71,65,64,62,60,85,74,63,0.00,40.00,9,4,13,0.00
2013-8-11,82,71,60,62,59,55,91,68,41,0.00,40.00,7,2,12,0.00
2013-8-14,71,61,51,51,46,44,81,61,41,0.00,40.00,9,5,16,0.00
2013-8-15,74,55,51,53,30,-100,86,59,39,0.00,40.00,7,3,11,0.00
2013-8-16,79,65,56,57,46,-100,84,59,34,0.00,40.00,9,3,12,0.00
2013-8-17,78,68,54,61,56,51,89,68,49,0.00,40.00,9,4,16,0.00
2013-8-18,80,69,58,63,55,-100,96,66,38,0.00,40.00,7,2,12,0.00
2013-8-19,83,65,58,62,41,-100,91,67,39,0.00,40.00,7,3,13,0.00
2013-8-20,87,72,62,64,58,-100,87,66,42,0.00,40.00,8,4,12,0.00
2013-8-21,85,75,67,68,64,61,82,69,51,0.00,40.00,12,5,17,0.00
2013-8-22,83,74,67,69,66,63,92,77,57,0.00,40.00,9,6,14,0.00
2013-8-23,81,73,67,68,60,51,95,68,35,0.00,40.00,9,5,17,0.00
2013-8-24,82,71,60,61,57,53,92,64,38,0.00,40.00,11,4,15,0.00
2013-8-25,87,72,59,62,55,-100,78,59,36,0.00,40.00,12,5,17,0.00
2013-8-26,89,76,65,70,64,59,82,66,48,0.00,40.00,16,8,22,0.00
2013-8-27,83,75,72,73,70,69,96,87,70,0.00,40.00,17,6,25,0.00
2013-8-31,83,74,66,72,68,64,96,82,58,0.00,40.00,25,6,37,0.00
2013-9-1,80,73,71,71,66,-100,95,83,69,0.00,40.00,9,4,12,0.00
2013-9-2,79,72,64,69,62,52,98,73,47,0.00,40.00,14,7,21,0.00
2013-9-3,74,64,59,56,52,48,79,65,47,0.00,40.00,11,6,20,0.00
2013-9-4,83,67,53,59,55,51,94,70,37,0.00,40.00,10,5,23,0.00
2013-9-5,71,66,60,60,54,43,87,68,38,0.00,40.00,9,5,15,0.00
2013-9-6,75,64,51,53,49,46,89,62,36,0.00,40.00,6,3,10,0.00
2013-9-7,83,75,58,67,62,48,79,65,50,0.00,40.00,12,4,17,0.00
2013-9-8,73,69,63,67,59,-100,87,75,65,0.00,40.00,13,6,20,0.00
2013-9-9,84,69,58,73,62,51,91,79,64,0.00,40.00,7,3,12,0.00
2013-9-10,97,85,75,72,67,63,84,59,32,0.00,40.00,13,7,21,0.00
2013-9-11,95,82,74,69,67,63,79,61,35,0.00,40.00,12,7,22,0.00
2013-9-12,80,71,62,69,63,52,95,78,42,0.00,40.00,18,6,26,0.00
2013-9-13,61,56,52,52,45,39,79,66,50,0.00,40.00,13,8,21,0.00
2013-9-14,69,57,46,50,43,39,80,61,36,0.00,40.00,6,3,9,0.00
2013-9-15,71,56,49,56,45,-100,94,73,38,0.00,40.00,10,4,19,0.00
2013-9-16,64,58,52,56,51,45,96,80,54,0.00,40.00,11,5,15,0.00
2013-10-16,64,60,48,62,52,43,95,77,50,0.00,40.00,16,8,22,0.00
2013-10-17,52,48,43,47,44,40,91,87,78,0.00,40.00,13,6,19,0.00
2013-10-18,65,51,41,46,42,39,91,71,44,0.00,40.00,16,7,26,0.00
2013-10-19,49,44,42,42,40,36,94,84,69,0.00,40.00,11,6,18,0.00
2013-10-20,62,50,42,42,36,-100,77,62,37,0.00,40.00,15,10,24,0.00
2013-10-21,61,53,42,49,43,35,91,67,55,0.00,40.00,16,10,25,0.00
2013-10-22,49,42,33,36,30,25,84,65,42,0.00,40.00,13,8,22,0.00
2013-11-4,52,42,32,37,28,22,79,60,32,0.00,40.00,10,7,15,0.00
2013-11-5,56,51,44,49,43,37,79,72,63,0.00,40.00,9,5,16,0.00
2013-11-6,62,54,45,54,46,39,92,74,57,0.00,40.00,19,12,31,0.00
2013-11-7,45,42,39,41,32,26,87,67,50,0.00,40.00,16,8,26,0.00
2013-11-8,44,38,35,33,29,25,89,70,47,0.00,40.00,10,5,15,0.00
2013-11-9,58,49,36,41,33,-100,76,57,49,0.00,40.00,24,14,35,0.00
2013-11-10,48,43,35,38,30,24,78,59,46,0.00,40.00,17,9,27,0.00
2013-11-11,47,39,29,39,32,22,94,76,58,0.00,40.00,16,10,24,0.00
2013-11-12,35,30,24,22,19,16,75,64,48,0.00,40.00,16,9,22,0.00
2013-11-13,36,29,21,23,19,17,84,67,49,0.00,40.00,20,10,25,0.00
2013-11-14,51,38,30,25,22,20,70,53,30,0.00,40.00,21,12,30,0.00
2013-11-15,49,43,37,30,26,23,70,50,38,0.00,40.00,17,8,23,0.00
2013-11-16,58,48,37,51,40,-100,88,78,69,0.00,40.00,17,10,25,0.00
2013-11-17,67,61,57,58,56,52,89,81,70,0.00,40.00,31,18,40,0.00
2013-11-18,45,40,36,35,28,23,73,62,57,0.00,40.00,19,14,29,0.00
2013-11-19,41,36,32,24,23,20,69,58,46,0.00,40.00,12,6,18,0.00
2013-12-8,29,25,17,26,18,9,93,73,59,0.00,40.00,14,7,21,0.00
2013-12-9,31,27,21,29,21,11,96,79,64,0.00,40.00,22,12,30,0.00
2013-12-10,26,20,13,11,7,1,71,58,44,0.00,40.00,25,12,35,0.00
2013-12-11,25,19,13,19,12,6,85,73,65,0.00,40.00,12,8,18,0.00
2013-12-12,16,11,5,6,2,-3,84,68,53,0.00,40.00,17,9,24,0.00
2013-12-13,31,23,13,23,13,6,81,67,57,0.00,40.00,14,7,20,0.00
2013-12-14,28,27,25,26,24,23,95,91,79,0.00,40.00,7,6,13,0.00